Latest Coastal Weather Observations for Barrow Island

IDW60701

Issued at 4:03 pm WST Wednesday 23 August 2017 (issued every 10 minutes, with the page automatically refreshed every 10 minutes)

About coastal observations | Map of coastal stations | Coastal observations for WA | Marine services | Other Formats
Station Details ID: 005094 Name: BARROW ISLAND AIRPORT Lat: -20.87 Lon: 115.41 Height: 6.4 m
Data from the previous 72 hours. | See also: Recent months at Barrow Island
Date/Time
WST
Temp
°C
Wind Pressure Rain since
9am
mm
Weather Cloud Vis
km
Sea
Height
m
Swell
Dir  Spd
kts
Gust
kts
hPa Trend Height
m
Period
s
Dir
23/04:00pm 27.4 SW 10 12 1015.1 - 0.0 - - - - - - -
23/03:30pm 26.1 SSW 8 10 1015.0 - 0.0 - - - - - - -
23/03:00pm 26.1 SSW 8 9 1014.9 - 0.0 - - - - - - -
23/02:30pm 25.5 SSW 10 12 1014.8 - 0.0 - - - - - - -
23/02:00pm 25.4 SSW 8 9 1015.1 - 0.0 - - - - - - -
23/01:30pm 25.7 S 7 8 1015.5 - 0.0 - - - - - - -
23/01:00pm 25.5 SSW 9 11 1015.9 - 0.0 - - - - - - -
23/12:30pm 25.3 SSW 10 12 1016.5 - 0.0 - - - - - - -
23/12:00pm 25.0 S 8 9 1017.0 - 0.0 - - - - - - -
23/11:30am 24.5 S 7 8 1017.3 - 0.0 - - - - - - -
23/11:00am 24.8 S 7 8 1017.7 - 0.0 - - - - - - -
23/10:30am 24.6 S 8 11 1017.8 - 0.0 - - - - - - -
23/10:00am 23.8 S 8 9 1018.0 - 0.0 - - - - - - -
23/09:30am 23.6 S 10 11 1017.7 - 0.0 - - - - - - -
23/09:00am 23.4 S 8 9 1017.5 - 0.0 - - - - - - -
23/08:30am 22.6 S 10 11 1017.5 - 0.0 - - - - - - -
23/08:00am 22.1 S 9 11 1017.1 - 0.0 - - - - - - -
23/07:30am 21.6 S 11 12 1017.0 - 0.0 - - - - - - -
23/07:00am 21.0 S 11 13 1016.8 - 0.0 - - - - - - -
23/06:30am 20.8 S 11 12 1016.6 - 0.0 - - - - - - -
23/06:00am 21.0 SSW 11 12 1016.4 - 0.0 - - - - - - -
23/05:30am 20.9 SSW 8 9 1016.2 - 0.0 - - - - - - -
23/05:00am 21.0 SSW 7 8 1016.0 - 0.0 - - - - - - -
23/04:30am 21.0 SSW 7 9 1015.9 - 0.0 - - - - - - -
23/04:00am 21.3 SSW 8 10 1015.9 - 0.0 - - - - - - -
23/03:30am 21.5 SSW 8 9 1016.0 - 0.0 - - - - - - -
23/03:00am 21.7 SW 10 13 1016.1 - 0.0 - - - - - - -
23/02:30am 21.8 SW 11 13 1016.1 - 0.0 - - - - - - -
23/02:00am 21.7 SW 10 12 1016.4 - 0.0 - - - - - - -
23/01:30am 20.8 SW 7 8 1016.5 - 0.0 - - - - - - -
23/01:00am 20.4 WSW 6 7 1016.6 - 0.0 - - - - - - -
23/12:30am 20.8 WSW 7 7 1016.7 - 0.0 - - - - - - -
23/12:00am 20.5 WSW 7 8 1017.0 - 0.0 - - - - - - -
 
Date/Time
WST
Temp
°C
Wind Pressure Rain since
9am
mm
Weather Cloud Vis
km
Sea
Height
m
Swell
Dir  Spd
kts
Gust
kts
hPa Trend Height
m
Period
s
Dir
22/11:30pm 20.7 WSW 7 8 1017.2 - 0.0 - - - - - - -
22/11:00pm 21.0 SW 7 7 1017.3 - 0.0 - - - - - - -
22/10:30pm 20.7 WSW 6 7 1017.4 - 0.0 - - - - - - -
22/10:00pm 20.8 WSW 7 8 1017.2 - 0.0 - - - - - - -
22/09:30pm 21.0 WSW 8 10 1017.3 - 0.0 - - - - - - -
22/09:00pm 21.0 WSW 8 9 1017.3 - 0.0 - - - - - - -
22/08:30pm 21.0 SW 9 10 1017.2 - 0.0 - - - - - - -
22/08:00pm 21.4 WSW 9 11 1017.0 - 0.0 - - - - - - -
22/07:30pm 21.5 WSW 9 11 1016.7 - 0.0 - - - - - - -
22/07:00pm 21.7 SW 10 12 1016.4 - 0.0 - - - - - - -
22/06:30pm 21.8 SW 10 12 1016.0 - 0.0 - - - - - - -
22/06:00pm 22.2 SW 11 13 1015.7 - 0.0 - - - - - - -
22/05:30pm 23.0 SW 10 13 1015.5 - 0.0 - - - - - - -
22/05:00pm 23.8 SW 10 13 1015.2 - 0.0 - - - - - - -
22/04:30pm 23.9 SSW 11 13 1015.0 - 0.0 - - - - - - -
22/04:00pm 24.0 SSW 11 13 1015.1 - 0.0 - - - - - - -
22/03:30pm 24.4 SSW 8 10 1015.0 - 0.0 - - - - - - -
22/03:00pm 24.6 SSW 11 13 1015.2 - 0.0 - - - - - - -
22/02:30pm 24.6 SSW 11 12 1015.3 - 0.0 - - - - - - -
22/02:00pm 24.8 S 9 10 1015.4 - 0.0 - - - - - - -
22/01:30pm 24.8 S 7 10 1015.6 - 0.0 - - - - - - -
22/01:00pm 24.5 S 8 9 1016.1 - 0.0 - - - - - - -
22/12:30pm 24.9 S 9 10 1016.3 - 0.0 - - - - - - -
22/12:00pm 24.4 S 9 11 1016.6 - 0.0 - - - - - - -
22/11:30am 24.1 S 8 10 1016.8 - 0.0 - - - - - - -
22/11:00am 24.1 S 9 10 1017.0 - 0.0 - - - - - - -
22/10:30am 24.4 S 9 11 1017.2 - 0.0 - - - - - - -
22/10:00am 23.7 S 10 12 1017.3 - 0.0 - - - - - - -
22/09:30am 23.1 S 10 12 1017.2 - 0.0 - - - - - - -
22/09:00am 22.6 S 12 14 1017.0 - 0.0 - - - - - - -
22/08:30am 23.2 SW 8 11 1016.6 - 0.0 - - - - - - -
22/08:00am 22.0 WSW 5 5 1016.4 - 0.0 - - - - - - -
22/07:30am 20.6 W 5 6 1016.0 - 0.0 - - - - - - -
22/07:00am 18.7 WNW 6 6 1015.7 - 0.0 - - - - - - -
22/06:30am 18.0 WNW 5 5 1015.4 - 0.0 - - - - - - -
22/06:00am 18.0 NW 5 6 1015.2 - 0.0 - - - - - - -
22/05:30am 17.7 WNW 3 4 1015.0 - 0.0 - - - - - - -
22/05:00am 18.8 W 7 8 1014.7 - 0.0 - - - - - - -
22/04:30am 18.8 W 7 8 1014.7 - 0.0 - - - - - - -
22/04:00am 18.6 WNW 5 7 1014.7 - 0.0 - - - - - - -
22/03:30am 19.6 W 7 8 1014.7 - 0.0 - - - - - - -
22/03:00am 19.0 WNW 4 6 1014.8 - 0.0 - - - - - - -
22/02:30am 18.1 N 5 6 1014.8 - 0.0 - - - - - - -
22/02:00am 19.3 NW 4 5 1015.1 - 0.0 - - - - - - -
22/01:30am 19.7 WNW 4 5 1015.3 - 0.0 - - - - - - -
22/01:00am 19.6 W 5 6 1015.3 - 0.0 - - - - - - -
22/12:30am 19.3 NW 6 6 1015.5 - 0.0 - - - - - - -
22/12:00am 19.2 NNW 6 7 1015.6 - 0.0 - - - - - - -
 
Date/Time
WST
Temp
°C
Wind Pressure Rain since
9am
mm
Weather Cloud Vis
km
Sea
Height
m
Swell
Dir  Spd
kts
Gust
kts
hPa Trend Height
m
Period
s
Dir
21/11:30pm 19.1 N 5 6 1015.8 - 0.0 - - - - - - -
21/11:00pm 19.8 NW 4 5 1016.0 - 0.0 - - - - - - -
21/10:30pm 19.8 N 6 6 1016.0 - 0.0 - - - - - - -
21/10:00pm 20.0 NNW 4 5 1016.2 - 0.0 - - - - - - -
21/09:30pm 20.9 N 5 6 1016.3 - 0.0 - - - - - - -
21/09:00pm 20.3 NW 4 5 1016.4 - 0.0 - - - - - - -
21/08:30pm 21.3 N 7 8 1015.9 - 0.0 - - - - - - -
21/08:00pm 21.4 N 8 9 1015.5 - 0.0 - - - - - - -
21/07:30pm 21.7 NNE 8 9 1015.4 - 0.0 - - - - - - -
21/07:00pm 22.0 N 4 5 1015.3 - 0.0 - - - - - - -
21/06:30pm 22.5 NNE 9 10 1014.7 - 0.0 - - - - - - -
21/06:00pm 23.1 NE 9 12 1014.1 - 0.0 - - - - - - -
21/05:30pm 23.5 NE 12 15 1013.7 - 0.0 - - - - - - -
21/05:00pm 23.8 NE 13 15 1013.6 - 0.0 - - - - - - -
21/04:30pm 24.2 NE 14 17 1013.6 - 0.0 - - - - - - -
21/04:00pm 24.5 NE 15 18 1013.5 - 0.0 - - - - - - -
21/03:30pm 24.9 NE 16 20 1013.3 - 0.0 - - - - - - -
21/03:00pm 24.6 NE 17 22 1013.3 - 0.0 - - - - - - -
21/02:30pm 24.6 NE 17 19 1013.6 - 0.0 - - - - - - -
21/02:00pm 24.7 NE 16 20 1013.7 - 0.0 - - - - - - -
21/01:30pm 24.6 NE 17 21 1013.9 - 0.0 - - - - - - -
21/01:00pm 24.6 NE 19 22 1014.2 - 0.0 - - - - - - -
21/12:30pm 24.8 NE 19 21 1014.5 - 0.0 - - - - - - -
21/12:00pm 24.7 NE 16 18 1015.0 - 0.0 - - - - - - -
21/11:30am 24.1 NE 14 16 1015.4 - 0.0 - - - - - - -
21/11:00am 24.0 NE 15 17 1015.6 - 0.0 - - - - - - -
21/10:30am 23.9 NE 15 17 1015.9 - 0.0 - - - - - - -
21/10:00am 23.9 NE 16 18 1016.0 - 0.0 - - - - - - -
21/09:30am 23.4 ENE 16 18 1015.8 - 0.0 - - - - - - -
21/09:00am 23.5 NE 12 13 1015.7 - 0.0 - - - - - - -
21/08:30am 23.3 NE 11 12 1015.4 - 0.0 - - - - - - -
21/08:00am 21.5 NE 10 12 1015.0 - 0.0 - - - - - - -
21/07:30am 21.2 NE 9 10 1014.9 - 0.0 - - - - - - -
21/07:00am 19.2 NE 9 10 1014.3 - 0.0 - - - - - - -
21/06:30am 18.4 NNE 9 11 1013.9 - 0.0 - - - - - - -
21/06:00am 17.8 NE 8 9 1013.5 - 0.0 - - - - - - -
21/05:30am 17.8 NE 8 9 1013.3 - 0.0 - - - - - - -
21/05:00am 18.0 NNE 7 8 1013.0 - 0.0 - - - - - - -
21/04:30am 17.7 NNE 6 7 1012.9 - 0.0 - - - - - - -
21/04:00am 16.6 NE 7 8 1012.9 - 0.0 - - - - - - -
21/03:30am 17.0 NNE 7 8 1012.7 - 0.0 - - - - - - -
21/03:00am 17.2 NNE 7 8 1012.7 - 0.0 - - - - - - -
21/02:30am 17.4 NNE 6 6 1012.8 - 0.0 - - - - - - -
21/02:00am 17.5 NNE 5 6 1012.8 - 0.0 - - - - - - -
21/01:30am 18.1 ENE 4 5 1013.1 - 0.0 - - - - - - -
21/01:00am 20.4 SE 4 5 1013.4 - 0.0 - - - - - - -
21/12:30am 20.5 SSE 5 6 1013.6 - 0.0 - - - - - - -
21/12:00am 20.8 S 7 8 1013.8 - 0.0 - - - - - - -
 
Date/Time
WST
Temp
°C
Wind Pressure Rain since
9am
mm
Weather Cloud Vis
km
Sea
Height
m
Swell
Dir  Spd
kts
Gust
kts
hPa Trend Height
m
Period
s
Dir
20/11:30pm 21.0 S 7 8 1014.0 - 0.0 - - - - - - -
20/11:00pm 21.2 S 8 10 1014.1 - 0.0 - - - - - - -
20/10:30pm 21.3 SSW 9 10 1014.2 - 0.0 - - - - - - -
20/10:00pm 21.0 SW 8 10 1014.3 - 0.0 - - - - - - -
20/09:30pm 20.5 WSW 9 11 1014.5 - 0.0 - - - - - - -
20/09:00pm 20.9 WSW 8 10 1014.4 - 0.0 - - - - - - -
20/08:30pm 21.0 WSW 9 11 1014.3 - 0.0 - - - - - - -
20/08:00pm 20.2 WSW 7 8 1014.3 - 0.0 - - - - - - -
20/07:30pm 20.6 WSW 8 9 1014.1 - 0.0 - - - - - - -
20/07:00pm 20.7 WSW 7 8 1013.8 - 0.0 - - - - - - -
20/06:30pm 21.5 WSW 7 8 1013.7 - 0.0 - - - - - - -
20/06:00pm 22.6 WSW 8 9 1013.5 - 0.0 - - - - - - -
20/05:30pm 24.2 SW 6 7 1013.4 - 0.0 - - - - - - -
20/05:00pm 23.9 SSW 8 10 1013.4 - 0.0 - - - - - - -
20/04:30pm 23.9 SSW 8 11 1013.3 - 0.0 - - - - - - -

Other Formats:

Comma delimited format used in spreadsheet applications
http://www.bom.gov.au/fwo/IDW60701/IDW60701.95304.axf

JavaScript Object Notation format (JSON) in row-major order
http://www.bom.gov.au/fwo/IDW60701/IDW60701.95304.json